Aviation Digital Data Service (ADDS)

Output produced by METARs form (0916 UTC 16 December 2017)
found at http://aviationweather.gov/adds/metars/
 
KACK 160532Z 1606/1706 33010G18KT 2SM -SN OVC008 
     FM160700 31015KT P6SM BKN025 
     FM160800 30017KT P6SM BKN040 
     FM160900 30019G26KT P6SM SCT250 
     FM162000 28020G31KT P6SM BKN080 
     FM170100 31016G24KT P6SM SCT060